Broadway, New Jersey
Current Conditions -  °F | °C
As of 7:51 PM on Saturday 25 Oct 2014 (Local Time) from KABE Reporting Station
Overcast Overcast  
Wind Chill: 63°   Ceiling: 7000
Heat Index: 63°   Visibility: 10mi
Dew Point: 44°   Wind: 9mph
Humidity: 50%   Direction: 220°SW
Pressure: 29.65"   Gusts: NA
Location:  40.73°N, 75.05°W
Report Text: KABE 252351Z 22008KT 10SM OVC070 17/07 A2965 RMK AO2 SLP040 T01720067 10206 20150 56012
Loading
Personal Weather Stations






























Interactive Weather Map
Tropical Storm Tracking
New forecast layout! Learn more

10-Day Weather Forecast

Advertisements
Track Severe Weather on mobile